Latest Weather Observations for Witchcliffe

IDW60801

Issued at 7:33 pm WST Saturday 27 August 2016 (issued every 30 minutes, with the page automatically refreshed every 10 minutes)

About weather observations | Map of weather stations | Latest weather observations for WA | Other Formats
Station Details ID: 009746 Name: WITCHCLIFFE Lat: -34.03 Lon: 115.10 Height: 80.0 m
Data from the previous 72 hours. | See also: Recent months at Witchcliffe
Date/Time
WST
Temp
°C
App
Temp
°C
Dew
Point
°C
Rel
Hum
%
Delta-T
°C
Wind Press
QNH
hPa
Press
MSL
hPa
Rain since
9am
mm
Dir  Spd
km/h
Gust
km/h
Spd
kts
Gust
kts
27/07:30pm 9.8 4.2 8.9 94 0.4 SSW 28 44 15 24 1005.1 1005.1 7.0
27/07:07pm 9.6 4.0 8.7 94 0.4 S 28 46 15 25 1004.7 1004.7 7.0
27/07:00pm 9.6 3.3 8.8 95 0.4 SSW 32 46 17 25 1004.6 1004.6 7.0
27/06:57pm 9.6 4.1 9.0 96 0.3 SSW 28 46 15 25 1004.6 1004.6 7.0
27/06:30pm 9.8 4.5 9.7 99 0.1 SSW 28 43 15 23 1004.2 1004.2 6.6
27/06:00pm 10.1 4.5 10.0 99 0.1 SSW 30 54 16 29 1003.4 1003.4 6.0
27/05:30pm 10.5 4.4 10.3 99 0.1 SSW 33 59 18 32 1002.6 1002.6 5.6
27/05:00pm 11.1 4.4 9.7 91 0.7 SSW 35 54 19 29 1001.7 1001.7 4.6
27/04:36pm 11.8 6.6 10.4 91 0.7 SSW 28 46 15 25 1001.0 1001.0 4.4
27/04:30pm 11.8 6.7 10.5 92 0.7 SSW 28 44 15 24 1000.9 1000.9 4.4
27/04:00pm 11.9 6.4 10.5 91 0.7 SSW 30 48 16 26 1000.4 1000.4 4.2
27/03:32pm 11.6 5.7 10.5 93 0.6 SSW 32 50 17 27 999.8 999.8 4.2
27/03:30pm 11.6 5.5 10.5 93 0.6 SSW 33 50 18 27 999.7 999.7 4.2
27/03:00pm 13.9 8.1 9.5 75 2.3 SW 30 48 16 26 999.1 999.1 3.0
27/02:35pm 13.4 8.0 9.6 78 2.0 SW 28 46 15 25 998.8 998.8 3.0
27/02:30pm 13.2 7.8 9.6 79 1.8 SW 28 44 15 24 998.7 998.7 3.0
27/02:07pm 12.7 7.5 10.4 86 1.2 SW 28 46 15 25 998.6 998.6 3.0
27/02:00pm 12.5 7.7 10.4 87 1.1 SW 26 43 14 23 998.5 998.5 2.8
27/01:30pm 11.9 6.3 8.9 82 1.5 SW 28 56 15 30 998.8 998.8 2.2
27/01:02pm 13.3 7.9 9.5 78 1.9 WSW 28 48 15 26 998.3 998.3 2.2
27/01:00pm 13.5 8.6 9.9 79 1.9 WSW 26 43 14 23 998.3 998.3 2.2
27/12:30pm 12.2 7.1 10.6 90 0.8 SW 28 48 15 26 998.5 998.5 2.2
27/12:00pm 12.4 7.8 11.1 92 0.7 WSW 26 43 14 23 998.4 998.4 1.4
27/11:30am 12.5 6.8 9.7 83 1.4 W 30 50 16 27 998.6 998.6 0.8
27/11:05am 11.7 6.3 9.4 86 1.2 W 28 52 15 28 998.8 998.8 0.8
27/11:00am 11.9 7.4 10.1 89 0.9 W 24 37 13 20 998.8 998.8 0.8
27/10:30am 12.1 7.4 9.3 83 1.4 W 24 41 13 22 998.9 998.9 0.4
27/10:00am 12.0 7.5 8.7 80 1.7 W 22 35 12 19 999.2 999.2 0.2
27/09:30am 12.5 8.1 9.0 79 1.8 WSW 22 39 12 21 999.3 999.3 0.2
27/09:00am 11.8 7.1 7.7 76 2.0 WSW 22 39 12 21 999.4 999.4 34.2
27/08:30am 11.6 7.9 8.1 79 1.7 WSW 17 33 9 18 999.4 999.4 34.2
27/08:00am 11.3 7.1 8.3 82 1.5 WSW 20 33 11 18 999.2 999.2 34.2
27/07:30am 11.2 8.3 9.6 90 0.8 WSW 15 26 8 14 998.8 998.8 34.2
27/07:00am 11.9 8.4 8.7 81 1.6 WNW 17 28 9 15 998.4 998.4 34.0
27/06:30am 11.9 8.2 7.8 76 2.0 WNW 17 26 9 14 998.4 998.4 33.2
27/06:00am 11.5 7.5 8.4 81 1.5 WNW 19 26 10 14 998.4 998.4 33.2
27/05:30am 10.6 6.5 8.7 88 0.9 NW 20 33 11 18 998.6 998.6 33.2
27/05:00am 11.2 7.3 8.8 85 1.2 WNW 19 32 10 17 998.7 998.7 32.0
27/04:30am 12.2 7.9 7.7 74 2.2 WNW 20 46 11 25 998.8 998.8 31.2
27/04:00am 12.4 8.9 7.1 70 2.6 WNW 15 24 8 13 999.1 999.1 31.2
27/03:30am 12.2 8.2 6.7 69 2.6 WNW 17 24 9 13 999.2 999.2 31.2
27/03:00am 12.0 8.3 6.5 69 2.6 WNW 15 24 8 13 999.6 999.6 31.2
27/02:30am 11.7 7.6 6.4 70 2.5 W 17 24 9 13 1000.0 1000.0 31.2
27/02:00am 11.6 8.2 7.7 77 1.9 W 15 24 8 13 1000.1 1000.1 31.2
27/01:30am 11.6 8.0 9.9 89 0.9 WNW 19 30 10 16 1000.6 1000.6 31.2
27/01:00am 11.5 9.2 10.4 93 0.6 WNW 13 20 7 11 1000.9 1000.9 31.0
27/12:30am 11.4 9.2 10.8 96 0.3 WNW 13 20 7 11 1001.6 1001.6 30.8
27/12:00am 11.4 8.9 11.1 98 0.2 WNW 15 22 8 12 1001.4 1001.4 30.8
 
Date/Time
WST
Temp
°C
App
Temp
°C
Dew
Point
°C
Rel
Hum
%
Delta-T
°C
Wind Press
QNH
hPa
Press
MSL
hPa
Rain since
9am
mm
Dir  Spd
km/h
Gust
km/h
Spd
kts
Gust
kts
26/11:30pm 11.8 9.5 11.6 99 0.1 WNW 15 28 8 15 1002.4 1002.4 29.6
26/11:00pm 12.1 9.8 11.9 99 0.1 W 15 24 8 13 1002.5 1002.5 28.4
26/10:30pm 12.0 9.3 11.8 99 0.1 WSW 17 32 9 17 1002.0 1002.0 27.2
26/10:00pm 12.5 8.7 12.3 99 0.1 NW 24 44 13 24 1002.8 1002.8 26.2
26/09:30pm 12.4 11.4 12.2 99 0.1 WNW 9 15 5 8 1002.7 1002.7 22.2
26/09:00pm 12.4 9.9 12.2 99 0.1 WNW 17 32 9 17 1003.8 1003.8 20.6
26/08:30pm 12.7 11.4 12.5 99 0.1 WNW 11 17 6 9 1002.7 1002.7 19.0
26/08:00pm 13.1 10.8 12.9 99 0.1 WNW 17 32 9 17 1004.0 1004.0 17.8
26/07:30pm 13.1 11.5 12.9 99 0.1 NW 13 24 7 13 1003.3 1003.3 16.0
26/07:00pm 13.1 11.9 12.9 99 0.1 WNW 11 17 6 9 1003.5 1003.5 15.2
26/06:30pm 13.5 11.7 13.3 99 0.1 WNW 15 24 8 13 1003.9 1003.9 14.0
26/06:00pm 13.7 12.3 13.5 99 0.1 WNW 13 22 7 12 1003.0 1003.0 12.8
26/05:30pm 13.6 11.0 13.3 98 0.2 WNW 19 30 10 16 1003.4 1003.4 10.4
26/05:00pm 14.5 10.3 13.5 94 0.6 NW 28 46 15 25 1002.5 1002.5 9.2
26/04:34pm 16.0 11.5 15.0 94 0.6 N 32 52 17 28 1002.0 1002.0 3.8
26/04:30pm 15.9 11.4 14.9 94 0.6 N 32 46 17 25 1002.1 1002.1 3.8
26/04:00pm 15.9 11.0 13.6 86 1.3 N 32 50 17 27 1002.7 1002.7 1.6
26/03:35pm 16.9 11.0 12.4 75 2.5 N 35 54 19 29 1003.0 1003.0 0.4
26/03:30pm 16.9 10.9 12.2 74 2.6 N 35 50 19 27 1003.1 1003.1 0.4
26/03:19pm 16.8 11.4 12.1 74 2.6 N 32 52 17 28 1003.2 1003.2 0.4
26/03:00pm 16.1 11.6 12.7 80 1.9 N 28 41 15 22 1003.5 1003.5 0.4
26/02:36pm 16.8 11.1 11.3 70 3.0 N 32 50 17 27 1003.9 1003.9 0.0
26/02:30pm 16.8 11.5 11.3 70 3.0 N 30 43 16 23 1004.1 1004.1 0.0
26/02:04pm 17.1 10.7 10.7 66 3.4 N 35 56 19 30 1004.4 1004.4 0.0
26/02:00pm 17.5 11.6 10.6 64 3.7 N 32 46 17 25 1004.4 1004.4 0.0
26/01:30pm 18.0 12.8 12.9 72 2.9 N 32 43 17 23 1004.6 1004.6 0.0
26/01:00pm 18.4 13.5 12.6 69 3.3 N 30 44 16 24 1005.0 1005.0 0.0
26/12:40pm 18.8 14.2 13.4 71 3.1 N 30 50 16 27 1005.7 1005.7 0.0
26/12:30pm 18.0 12.6 12.9 72 2.9 N 33 48 18 26 1006.1 1006.1 0.0
26/12:00pm 18.1 12.8 12.5 70 3.1 N 32 43 17 23 1006.7 1006.7 0.0
26/11:30am 17.7 10.6 11.0 65 3.6 N 39 54 21 29 1007.2 1007.2 0.0
26/11:20am 18.5 12.3 11.3 63 3.9 N 35 56 19 30 1007.3 1007.3 0.0
26/11:00am 19.0 13.5 12.5 66 3.7 NNE 33 50 18 27 1007.6 1007.6 0.0
26/10:30am 18.1 13.0 11.9 67 3.4 N 30 43 16 23 1008.3 1008.3 0.0
26/10:00am 18.3 13.6 12.1 67 3.4 N 28 41 15 22 1008.6 1008.6 0.0
26/09:30am 17.2 12.0 11.5 69 3.1 N 30 41 16 22 1009.4 1009.4 0.0
26/09:00am 16.9 12.8 11.6 71 2.9 N 24 39 13 21 1009.7 1009.7 0.0
26/08:30am 15.1 11.6 10.9 76 2.2 N 20 33 11 18 1010.3 1010.3 0.0
26/08:00am 13.8 10.6 9.8 77 2.1 N 17 24 9 13 1010.7 1010.7 0.0
26/07:30am 13.2 9.8 9.1 76 2.1 N 17 22 9 12 1010.6 1010.6 0.0
26/07:00am 13.4 10.3 8.9 74 2.3 NNE 15 22 8 12 1010.9 1010.9 0.0
26/06:30am 13.1 10.3 8.6 74 2.3 N 13 19 7 10 1011.4 1011.4 0.0
26/06:00am 13.1 9.8 8.2 72 2.4 N 15 19 8 10 1011.7 1011.7 0.0
26/05:30am 13.1 9.4 7.8 70 2.6 N 17 22 9 12 1011.7 1011.7 0.0
26/05:00am 13.2 8.8 7.6 69 2.8 N 20 28 11 15 1011.5 1011.5 0.0
26/04:30am 13.2 8.4 7.4 68 2.8 N 22 33 12 18 1011.7 1011.7 0.0
26/04:00am 12.9 8.0 7.1 68 2.8 N 22 35 12 19 1012.0 1012.0 0.0
26/03:30am 12.6 7.6 6.6 67 2.9 N 22 30 12 16 1012.4 1012.4 0.0
26/03:00am 12.3 7.6 5.9 65 3.0 N 20 32 11 17 1012.6 1012.6 0.0
26/02:30am 12.0 6.8 5.6 65 3.0 N 22 28 12 15 1013.3 1013.3 0.0
26/02:00am 11.9 7.2 5.1 63 3.1 N 19 28 10 15 1014.0 1014.0 0.0
26/01:30am 12.5 7.6 5.2 61 3.4 N 20 32 11 17 1014.3 1014.3 0.0
26/01:00am 12.4 8.1 5.1 61 3.4 NNE 17 28 9 15 1015.1 1015.1 0.0
26/12:30am 12.2 7.9 5.4 63 3.2 NNE 17 28 9 15 1015.3 1015.3 0.0
26/12:00am 11.9 8.4 5.5 65 3.0 NNE 13 24 7 13 1015.7 1015.7 0.0
 
Date/Time
WST
Temp
°C
App
Temp
°C
Dew
Point
°C
Rel
Hum
%
Delta-T
°C
Wind Press
QNH
hPa
Press
MSL
hPa
Rain since
9am
mm
Dir  Spd
km/h
Gust
km/h
Spd
kts
Gust
kts
25/11:30pm 11.6 8.5 5.7 67 2.8 NNE 11 15 6 8 1016.4 1016.4 0.0
25/11:00pm 10.8 8.1 5.8 71 2.3 NNE 9 13 5 7 1016.5 1016.5 0.0
25/10:30pm 10.6 8.3 5.8 72 2.2 NNE 7 13 4 7 1017.4 1017.5 0.0
25/10:00pm 10.2 7.9 7.3 82 1.4 NNE 9 15 5 8 1018.3 1018.4 0.0
25/09:30pm 8.7 6.8 7.6 93 0.5 N 7 11 4 6 1018.8 1018.9 0.0
25/09:00pm 7.6 6.7 6.1 90 0.7 CALM 0 0 0 0 1018.9 1019.0 0.0
25/08:30pm 7.9 7.0 5.9 87 0.9 CALM 0 0 0 0 1019.1 1019.2 0.0
25/08:00pm 8.3 7.4 5.9 85 1.1 CALM 0 0 0 0 1019.2 1019.3 0.0
25/07:30pm 8.7 7.7 5.8 82 1.3 CALM 0 0 0 0 1019.3 1019.4 0.0
25/07:00pm 10.0 9.2 6.3 78 1.7 CALM 0 0 0 0 1019.0 1019.1 0.0
25/06:30pm 11.5 9.4 6.6 72 2.3 NNE 7 9 4 5 1019.1 1019.2 0.0
25/06:00pm 12.6 10.5 6.6 67 2.9 NNE 7 9 4 5 1018.9 1019.0 0.0
25/05:30pm 14.2 11.8 7.0 62 3.5 NNE 9 15 5 8 1018.6 1018.7 0.0
25/05:00pm 15.1 11.9 6.7 57 4.1 NNE 13 19 7 10 1018.8 1018.9 0.0
25/04:30pm 15.4 11.2 5.9 53 4.6 N 17 22 9 12 1019.0 1019.1 0.0
25/04:00pm 16.1 12.9 6.8 54 4.6 NNW 13 17 7 9 1019.2 1019.3 0.0
25/03:30pm 16.2 12.2 6.6 53 4.7 N 17 24 9 13 1019.5 1019.6 0.0
25/03:00pm 16.7 13.6 7.1 53 4.8 NNE 13 19 7 10 1019.6 1019.7 0.0
25/02:30pm 16.2 11.8 6.6 53 4.7 NNE 19 26 10 14 1019.9 1020.0 0.0
25/02:00pm 16.2 11.7 6.1 51 4.9 N 19 24 10 13 1020.3 1020.3 0.0
25/01:30pm 16.0 11.7 5.3 49 5.1 N 17 24 9 13 1020.8 1020.8 0.0
25/01:00pm 15.9 11.4 6.3 53 4.7 N 19 26 10 14 1021.5 1021.5 0.0
25/12:30pm 15.7 11.3 7.2 57 4.2 N 20 32 11 17 1022.3 1022.3 0.0
25/12:00pm 15.4 11.2 7.4 59 4.0 N 19 28 10 15 1022.9 1022.9 0.0
25/11:30am 14.7 10.7 6.8 59 3.9 NNE 17 26 9 14 1023.5 1023.5 0.0
25/11:00am 14.0 10.0 6.6 61 3.6 NNE 17 24 9 13 1024.1 1024.1 0.0
25/10:30am 13.4 9.3 6.3 62 3.4 NNE 17 26 9 14 1024.5 1024.5 0.0
25/10:00am 12.4 7.7 6.0 65 3.0 NNE 20 30 11 16 1024.7 1024.7 0.0
25/09:30am 11.4 8.8 7.7 78 1.8 NNE 11 17 6 9 1025.0 1025.0 0.0
25/09:00am 9.3 9.1 9.0 98 0.1 CALM 0 4 0 2 1025.2 1025.2 0.2
25/08:30am 6.8 6.0 6.7 99 0.0 CALM 0 4 0 2 1025.4 1025.4 0.2
25/08:00am 4.6 3.4 4.5 99 0.0 CALM 0 0 0 0 1025.5 1025.5 0.2
25/07:30am 3.0 1.5 2.9 99 0.0 CALM 0 0 0 0 1025.5 1025.5 0.0
25/07:00am 1.6 -0.2 1.2 97 0.2 CALM 0 0 0 0 1025.3 1025.3 0.0
25/06:30am 2.1 0.4 1.7 97 0.2 CALM 0 0 0 0 1025.1 1025.1 0.0
25/06:00am 1.9 0.1 1.3 96 0.2 CALM 0 0 0 0 1025.1 1025.1 0.0
25/05:30am 1.5 -0.4 0.8 95 0.3 CALM 0 0 0 0 1024.9 1024.9 0.0
25/05:00am 2.1 0.3 1.5 96 0.2 CALM 0 0 0 0 1024.9 1024.9 0.0
25/04:30am 2.7 1.0 2.0 95 0.3 CALM 0 0 0 0 1024.8 1024.8 0.0
25/04:00am 3.4 1.9 2.8 96 0.2 CALM 0 0 0 0 1024.6 1024.6 0.0
25/03:30am 3.4 1.8 2.7 95 0.3 CALM 0 0 0 0 1024.7 1024.7 0.0
25/03:00am 4.1 2.7 3.4 95 0.3 CALM 0 0 0 0 1024.9 1024.9 0.0
25/02:30am 4.1 1.5 3.4 95 0.3 SE 6 6 3 3 1025.0 1025.0 0.0
25/02:00am 4.7 3.4 4.1 96 0.3 CALM 0 0 0 0 1025.0 1025.0 0.0
25/01:30am 4.8 3.1 4.2 96 0.3 ESE 2 7 1 4 1025.4 1025.4 0.0
25/01:00am 5.0 3.8 4.6 97 0.2 CALM 0 0 0 0 1025.4 1025.4 0.0
25/12:30am 4.4 3.0 3.8 96 0.3 CALM 0 0 0 0 1025.7 1025.7 0.0
25/12:00am 4.1 2.6 3.2 94 0.4 CALM 0 0 0 0 1025.8 1025.8 0.0
 
Date/Time
WST
Temp
°C
App
Temp
°C
Dew
Point
°C
Rel
Hum
%
Delta-T
°C
Wind Press
QNH
hPa
Press
MSL
hPa
Rain since
9am
mm
Dir  Spd
km/h
Gust
km/h
Spd
kts
Gust
kts
24/11:30pm 4.9 3.6 4.0 94 0.4 CALM 0 0 0 0 1026.1 1026.1 0.0
24/11:00pm 5.8 4.7 4.9 94 0.4 CALM 0 0 0 0 1026.1 1026.1 0.0
24/10:30pm 5.8 4.6 4.6 92 0.5 CALM 0 0 0 0 1026.2 1026.2 0.0
24/10:00pm 5.6 4.3 4.1 90 0.6 CALM 0 0 0 0 1026.2 1026.2 0.0
24/09:30pm 6.6 5.5 4.9 89 0.7 CALM 0 0 0 0 1026.2 1026.2 0.0
24/09:00pm 7.1 6.0 5.1 87 0.9 CALM 0 0 0 0 1026.1 1026.1 0.0
24/08:30pm 8.0 7.0 5.5 84 1.1 CALM 0 0 0 0 1026.1 1026.1 0.0
24/08:00pm 8.5 7.5 5.4 81 1.4 CALM 0 0 0 0 1026.0 1026.0 0.0

Other Formats:

Comma delimited format used in spreadsheet applications
http://www.bom.gov.au/fwo/IDW60801/IDW60801.95641.axf

JavaScript Object Notation format (JSON) in row-major order
http://www.bom.gov.au/fwo/IDW60801/IDW60801.95641.json